ADDS METAR Data INFO
IDs: Format: Raw Decoded Include TAF

Data at: 0340 UTC 24 Feb 2017

EGBB 240320Z 30012KT CAVOK 04/01 Q1010

No METAR found for EGBE

No METAR found for EGBJ

EGVN 240250Z 26005KT CAVOK 03/M00 Q1011 NOSIG

EGTK 232220Z 29007KT 260V350 9999 FEW024 04/03 Q1007

No METAR found for EGWC


Page loaded:  03:40 UTC  |   07:40 PM Pacific  |   08:40 PM Mountain  |   09:40 PM Central  |   10:40 PM Eastern

 

ADVISORIES

FORECASTS

FORECASTS

OBSERVATIONS

USER TOOLS

ABOUT US